Time;durP1;ratioP1;P1;durP2;ratioP2;P2;SDS_P1;SDS_P2;PMS_P1;PMS_P2;Temp;Humidity;BMP_temperature;BMP_pressure;BME280_temperature;BME280_humidity;BME280_pressure;Samples;Min_cycle;Max_cycle;Signal;HPM_P1;HPM_P2
2022/11/19 00:01:04;;;;;;;4.93;2.75;;;;;;;-1.00;100.00;101063.44;6200419;28;20399;-73
2022/11/19 00:04:07;;;;;;;7.40;3.47;;;;;;;-1.06;100.00;101058.28;6200318;28;20054;-73
2022/11/19 00:07:09;;;;;;;6.45;2.67;;;;;;;-0.98;100.00;101060.88;6200578;28;20422;-73
2022/11/19 00:10:11;;;;;;;7.78;2.85;;;;;;;-1.04;100.00;101054.00;6200068;28;20042;-73
2022/11/19 00:13:14;;;;;;;5.22;2.80;;;;;;;-1.15;100.00;101061.72;6200875;28;20050;-74
2022/11/19 00:16:15;;;;;;;5.57;2.75;;;;;;;-1.09;100.00;101066.91;6199962;28;20050;-73
2022/11/19 00:19:17;;;;;;;3.53;2.05;;;;;;;-1.07;100.00;101066.91;6199311;28;20384;-73
2022/11/19 00:22:19;;;;;;;6.75;2.92;;;;;;;-1.01;100.00;101059.13;6200069;28;20050;-74
2022/11/19 00:25:22;;;;;;;3.10;2.30;;;;;;;-1.16;100.00;101067.75;6199799;28;20050;-73
2022/11/19 00:28:23;;;;;;;5.18;3.08;;;;;;;-1.25;100.00;101065.19;6200249;28;20061;-73
2022/11/19 00:31:24;;;;;;;10.40;3.30;;;;;;;-1.17;100.00;101063.47;6199642;28;20061;-74
2022/11/19 00:34:26;;;;;;;6.80;3.28;;;;;;;-1.10;100.00;101072.91;6199660;28;20046;-74
2022/11/19 00:37:29;;;;;;;4.03;2.33;;;;;;;-1.16;100.00;101066.91;6200012;28;20065;-74
2022/11/19 00:40:30;;;;;;;5.88;3.10;;;;;;;-1.11;100.00;101073.75;6199718;28;20134;-74
2022/11/19 00:43:47;;;;;;;3.50;2.35;;;;;;;-1.11;100.00;101065.16;6200217;28;20053;-74
2022/11/19 00:46:48;;;;;;;5.05;2.63;;;;;;;-1.13;100.00;101074.63;6199660;28;20457;-74
2022/11/19 00:49:50;;;;;;;6.43;2.63;;;;;;;-1.20;100.00;101073.75;6199164;28;20050;-74
2022/11/19 00:52:52;;;;;;;3.35;2.78;;;;;;;-1.16;100.00;101083.22;6199993;28;20565;-74
2022/11/19 00:55:54;;;;;;;7.10;2.97;;;;;;;-1.17;100.00;101088.38;6199148;28;20057;-74
2022/11/19 00:58:56;;;;;;;6.55;2.75;;;;;;;-1.30;100.00;101088.38;6199479;28;20050;-74
2022/11/19 01:01:57;;;;;;;4.38;2.85;;;;;;;-1.25;100.00;101098.69;6199315;28;20050;-74
2022/11/19 01:04:58;;;;;;;6.13;2.95;;;;;;;-1.24;100.00;101091.81;6198852;28;20522;-74
2022/11/19 01:08:01;;;;;;;6.43;3.35;;;;;;;-1.22;100.00;101101.28;6199383;28;20058;-74
2022/11/19 01:11:07;;;;;;;9.05;4.10;;;;;;;-1.24;100.00;101105.56;6198865;28;20501;-74
2022/11/19 01:14:09;;;;;;;9.52;3.83;;;;;;;-1.28;100.00;101103.84;6198726;28;20502;-74
2022/11/19 01:17:10;;;;;;;3.33;2.35;;;;;;;-1.24;100.00;101108.13;6199079;28;20046;-74
2022/11/19 01:20:12;;;;;;;6.47;3.28;;;;;;;-1.47;100.00;101113.25;6198698;28;20053;-74
2022/11/19 01:23:15;;;;;;;10.02;2.90;;;;;;;-1.51;100.00;101111.53;6198988;28;20050;-74
2022/11/19 01:26:17;;;;;;;6.18;3.53;;;;;;;-1.43;100.00;101112.41;6198676;28;20057;-74
2022/11/19 01:29:18;;;;;;;6.18;3.15;;;;;;;-1.59;100.00;101108.97;6198291;28;20498;-74
2022/11/19 01:32:20;;;;;;;5.40;2.88;;;;;;;-1.49;100.00;101115.00;6198435;28;20050;-74
2022/11/19 01:35:21;;;;;;;6.72;2.90;;;;;;;-1.57;100.00;101112.41;6198367;28;20061;-74
2022/11/19 01:38:24;;;;;;;5.45;3.40;;;;;;;-1.57;100.00;101116.69;6198453;28;20120;-74
2022/11/19 01:41:28;;;;;;;4.57;2.63;;;;;;;-1.50;100.00;101120.97;6198319;28;20053;-74
2022/11/19 01:44:59;;;;;;;6.38;3.20;;;;;;;-1.63;100.00;101121.84;6197446;28;20395;-74
2022/11/19 01:48:04;;;;;;;3.60;2.20;;;;;;;-1.50;100.00;101120.97;6198499;28;20050;-75
2022/11/19 01:51:13;;;;;;;5.97;2.55;;;;;;;-1.62;100.00;101121.84;6197850;28;20046;-74
2022/11/19 01:54:21;;;;;;;;;;;;;;;-1.54;100.00;101133.03;6198561;28;20057;-74
2022/11/19 01:57:22;;;;;;;6.97;3.40;;;;;;;-1.60;100.00;101134.72;6198549;28;19921;-75
2022/11/19 02:00:24;;;;;;;4.43;2.70;;;;;;;-1.56;100.00;101139.88;6197985;28;20050;-74
2022/11/19 02:03:27;;;;;;;4.93;2.67;;;;;;;-1.52;100.00;101137.31;6198142;28;20046;-74
2022/11/19 02:06:30;;;;;;;7.07;3.30;;;;;;;-1.47;100.00;101145.91;6197682;28;20403;-74
2022/11/19 02:09:33;;;;;;;6.90;3.42;;;;;;;-1.65;100.00;101150.16;6198175;28;20042;-74
2022/11/19 02:12:45;;;;;;;5.13;2.97;;;;;;;-1.63;100.00;101153.63;6197688;28;20514;-74
2022/11/19 02:15:53;;;;;;;5.13;2.45;;;;;;;-1.60;100.00;101152.75;6197525;28;20051;-75
2022/11/19 02:19:00;;;;;;;3.97;2.63;;;;;;;-1.58;100.00;101161.34;6197985;28;20054;-74
2022/11/19 02:22:16;;;;;;;4.57;3.08;;;;;;;-1.63;100.00;101156.19;6197528;28;20136;-75
2022/11/19 02:25:35;;;;;;;4.40;3.22;;;;;;;-1.64;100.00;101157.03;6197463;28;20058;-74
2022/11/19 02:28:41;;;;;;;14.20;3.92;;;;;;;-1.61;100.00;101157.03;6198061;28;20053;-74
2022/11/19 02:31:54;;;;;;;5.03;2.47;;;;;;;-1.73;100.00;101161.28;6197342;28;20046;-74
2022/11/19 02:34:59;;;;;;;5.50;3.22;;;;;;;-1.71;100.00;101157.03;6197553;28;20050;-74
2022/11/19 02:38:09;;;;;;;4.43;2.75;;;;;;;-1.76;100.00;101161.31;6198057;28;20050;-74
2022/11/19 02:41:34;;;;;;;6.43;2.90;;;;;;;-1.80;100.00;101152.69;6197732;28;20425;-74
2022/11/19 02:48:06;;;;;;;5.35;3.30;;;;;;;-1.76;100.00;101151.84;6202583;28;20058;-74
2022/11/19 02:51:09;;;;;;;4.47;2.63;;;;;;;-1.73;100.00;101156.13;6202181;28;20050;-75
2022/11/19 02:54:10;;;;;;;9.15;3.10;;;;;;;-1.70;100.00;101162.16;6202145;28;20130;-74
2022/11/19 02:57:13;;;;;;;5.53;3.05;;;;;;;-1.80;100.00;101173.28;6202371;28;20050;-74
2022/11/19 03:06:55;;;;;;;3.83;2.40;;;;;;;-1.96;100.00;101171.50;6202071;28;19922;-74
2022/11/19 03:10:02;;;;;;;6.18;3.67;;;;;;;-1.92;100.00;101173.25;6201790;28;20057;-75
2022/11/19 03:16:41;;;;;;;4.30;2.72;;;;;;;-1.92;100.00;101176.66;6201426;28;20054;-74
2022/11/19 03:19:48;;;;;;;4.22;2.33;;;;;;;-1.92;100.00;101176.66;6201666;28;20054;-74
2022/11/19 03:22:54;;;;;;;5.15;3.03;;;;;;;-1.93;100.00;101177.53;6202036;28;20073;-74
2022/11/19 03:25:59;;;;;;;4.03;2.72;;;;;;;-1.92;100.00;101181.81;6201362;28;20079;-74
2022/11/19 03:29:04;;;;;;;5.43;2.92;;;;;;;-1.94;100.00;101185.25;6201522;28;20050;-75
2022/11/19 03:32:09;;;;;;;6.88;2.55;;;;;;;-1.98;100.00;101181.81;6201319;28;20136;-74
2022/11/19 03:35:18;;;;;;;6.63;3.03;;;;;;;-2.00;100.00;101178.34;6213455;28;20053;-74
2022/11/19 03:38:27;;;;;;;5.80;3.45;;;;;;;-2.15;100.00;101189.44;6225912;28;20410;-75
2022/11/19 03:41:29;;;;;;;5.57;3.33;;;;;;;-2.05;100.00;101182.59;6225505;28;20041;-74
2022/11/19 03:44:36;;;;;;;7.82;2.83;;;;;;;-2.06;100.00;101178.31;6225091;28;20413;-74
2022/11/19 03:47:41;;;;;;;6.05;2.55;;;;;;;-2.06;100.00;101180.88;6225405;28;20057;-74
2022/11/19 03:50:48;;;;;;;5.43;3.55;;;;;;;-2.12;100.00;101186.03;6225262;28;20050;-74
2022/11/19 03:53:50;;;;;;;7.47;2.78;;;;;;;-2.14;100.00;101185.13;6222134;28;20053;-74
2022/11/19 03:56:51;;;;;;;5.13;3.22;;;;;;;-2.13;100.00;101199.75;6225272;28;20061;-75
2022/11/19 03:59:52;;;;;;;7.13;2.90;;;;;;;-2.13;100.00;101190.31;6216271;28;20046;-74
2022/11/19 04:02:54;;;;;;;3.67;2.72;;;;;;;-2.15;100.00;101204.00;6215186;28;20053;-74
2022/11/19 04:05:57;;;;;;;3.78;2.78;;;;;;;-2.20;100.00;101213.44;6229956;28;20053;-74
2022/11/19 04:08:58;;;;;;;5.00;3.13;;;;;;;-2.16;100.00;101205.72;6228531;28;20057;-73
2022/11/19 04:12:00;;;;;;;5.50;2.92;;;;;;;-2.23;100.00;101213.41;6226058;28;20045;-74
2022/11/19 04:15:01;;;;;;;6.47;2.83;;;;;;;-2.16;100.00;101222.91;6225358;28;20045;-73
2022/11/19 04:18:03;;;;;;;6.35;3.72;;;;;;;-2.25;100.00;101221.13;6223288;28;20050;-75
2022/11/19 04:21:06;;;;;;;4.60;2.65;;;;;;;-2.35;100.00;101220.19;6222861;28;20042;-74
2022/11/19 04:24:08;;;;;;;3.08;2.28;;;;;;;-2.37;100.00;101223.59;6224028;28;20050;-74
2022/11/19 04:27:09;;;;;;;4.38;3.10;;;;;;;-2.39;100.00;101218.44;6224659;28;20050;-74
2022/11/19 04:30:12;;;;;;;7.38;3.03;;;;;;;-2.31;100.00;101227.09;6224305;28;20046;-74
2022/11/19 04:33:13;;;;;;;4.88;2.55;;;;;;;-2.36;100.00;101222.78;6224487;28;20142;-74
2022/11/19 04:36:16;;;;;;;4.28;2.90;;;;;;;-2.34;100.00;101221.91;6224358;28;20493;-75
2022/11/19 04:39:17;;;;;;;4.40;3.00;;;;;;;-2.36;100.00;101222.78;6224276;28;20061;-74
2022/11/19 04:42:18;;;;;;;2.58;1.98;;;;;;;-2.37;100.00;101228.75;6224097;28;20050;-74
2022/11/19 04:45:20;;;;;;;6.32;3.22;;;;;;;-2.36;100.00;101225.34;6223609;28;20053;-74
2022/11/19 04:48:21;;;;;;;4.60;2.53;;;;;;;-2.41;100.00;101233.00;6224245;28;20061;-75
2022/11/19 04:51:24;;;;;;;6.07;3.63;;;;;;;-2.40;100.00;101236.47;6223575;28;20413;-74
2022/11/19 04:54:25;;;;;;;3.15;2.50;;;;;;;-2.43;100.00;101233.84;6223636;28;20054;-74
2022/11/19 04:57:27;;;;;;;4.95;3.05;;;;;;;-2.47;100.00;101221.81;6223995;28;20060;-74
2022/11/19 05:00:28;;;;;;;4.53;2.80;;;;;;;-2.47;100.00;101224.38;6223681;28;20046;-74
2022/11/19 05:03:30;;;;;;;5.05;2.85;;;;;;;-2.52;100.00;101216.63;6223737;28;20060;-74
2022/11/19 05:06:33;;;;;;;5.00;2.85;;;;;;;-2.55;100.00;101224.31;6222838;28;20057;-74
2022/11/19 05:09:34;;;;;;;3.78;2.75;;;;;;;-2.62;100.00;101228.56;6223767;28;20054;-74
2022/11/19 05:12:36;;;;;;;6.25;3.28;;;;;;;-2.62;100.00;101225.13;6223141;28;20050;-74
2022/11/19 05:15:37;;;;;;;6.97;3.60;;;;;;;-2.60;100.00;101229.44;6223316;28;20050;-74
2022/11/19 05:18:39;;;;;;;2.40;2.13;;;;;;;-2.68;100.00;101225.97;6223378;28;20050;-74
2022/11/19 05:21:41;;;;;;;5.38;2.78;;;;;;;-2.67;100.00;101230.25;6223124;28;20131;-74
2022/11/19 05:24:43;;;;;;;7.07;2.17;;;;;;;-2.68;100.00;101232.78;6222701;28;20053;-74
2022/11/19 05:27:44;;;;;;;7.22;3.42;;;;;;;-2.73;100.00;101240.47;6223543;28;20050;-74
2022/11/19 05:30:46;;;;;;;13.05;3.95;;;;;;;-2.76;100.00;101229.31;6222654;28;20046;-74
2022/11/19 05:33:47;;;;;;;6.03;3.47;;;;;;;-2.78;100.00;101231.84;6223038;28;20061;-74
2022/11/19 05:36:50;;;;;;;5.22;3.03;;;;;;;-2.77;100.00;101238.75;6223037;28;20049;-74
2022/11/19 05:39:51;;;;;;;6.00;3.30;;;;;;;-2.83;100.00;101244.66;6222608;28;20687;-74
2022/11/19 05:42:52;;;;;;;5.20;3.13;;;;;;;-2.81;100.00;101252.41;6223299;28;20046;-74
2022/11/19 05:45:54;;;;;;;9.60;3.83;;;;;;;-2.84;100.00;101248.09;6222455;28;20061;-74
2022/11/19 05:48:55;;;;;;;4.95;2.38;;;;;;;-2.85;100.00;101250.66;6223039;28;20061;-74
2022/11/19 05:51:58;;;;;;;5.05;2.22;;;;;;;-2.87;100.00;101252.34;6222140;28;20042;-74
2022/11/19 05:55:00;;;;;;;4.03;2.47;;;;;;;-2.92;100.00;101254.84;6221614;28;20046;-74
2022/11/19 05:58:01;;;;;;;3.67;2.92;;;;;;;-2.96;100.00;101252.25;6218377;28;20058;-73
2022/11/19 06:01:04;;;;;;;4.90;3.50;;;;;;;-2.96;100.00;101253.09;6220820;28;20045;-73
2022/11/19 06:04:05;;;;;;;4.32;3.30;;;;;;;-2.99;100.00;101249.66;6220697;28;20053;-74
2022/11/19 06:07:08;;;;;;;10.35;3.83;;;;;;;-2.98;100.00;101248.81;6220671;28;20057;-74
2022/11/19 06:10:10;;;;;;;6.22;3.65;;;;;;;-2.99;100.00;101258.22;6220264;28;20494;-74
2022/11/19 06:13:12;;;;;;;4.93;3.28;;;;;;;-2.98;100.00;101264.22;6207825;28;20049;-73
2022/11/19 06:16:13;;;;;;;7.43;3.60;;;;;;;-2.97;100.00;101265.94;6200101;28;20058;-73
2022/11/19 06:19:14;;;;;;;6.05;3.47;;;;;;;-3.00;100.00;101277.06;6217821;28;20057;-74
2022/11/19 06:22:17;;;;;;;8.02;3.75;;;;;;;-3.00;100.00;101276.19;6218293;28;20515;-74
2022/11/19 06:25:19;;;;;;;7.70;3.05;;;;;;;-3.09;100.00;101280.41;6221200;28;20052;-74
2022/11/19 06:28:20;;;;;;;5.68;3.47;;;;;;;-3.09;100.00;101285.56;6221506;28;20449;-74
2022/11/19 06:31:22;;;;;;;8.40;4.82;;;;;;;-3.13;100.00;101285.50;6220686;28;20046;-73
2022/11/19 06:34:24;;;;;;;9.27;3.65;;;;;;;-3.04;100.00;101287.28;6220690;28;20081;-73
2022/11/19 06:37:27;;;;;;;7.95;4.13;;;;;;;-3.13;100.00;101280.38;6221508;28;20054;-72
2022/11/19 06:40:28;;;;;;;3.50;2.70;;;;;;;-3.11;100.00;101278.66;6221543;28;20054;-73
2022/11/19 06:43:29;;;;;;;7.05;3.22;;;;;;;-3.11;100.00;101278.66;6220991;28;20509;-72
2022/11/19 06:46:31;;;;;;;3.53;2.60;;;;;;;-3.12;100.00;101282.94;6207475;28;20054;-73
2022/11/19 06:49:32;;;;;;;31.00;13.85;;;;;;;-3.13;100.00;101290.66;6209933;28;20052;-72
2022/11/19 06:52:36;;;;;;;50.30;17.08;;;;;;;-3.12;100.00;101295.78;6220166;28;20133;-72
2022/11/19 06:55:37;;;;;;;23.77;10.25;;;;;;;-3.22;100.00;101298.25;6219442;28;20050;-72
2022/11/19 06:58:38;;;;;;;22.30;8.85;;;;;;;-3.24;100.00;101293.06;6221769;28;20449;-73
2022/11/19 07:01:40;;;;;;;15.85;6.20;;;;;;;-3.21;100.00;101297.41;6226908;28;20532;-72
2022/11/19 07:04:41;;;;;;;6.13;3.88;;;;;;;-3.23;100.00;101307.63;6220789;28;20054;-72
2022/11/19 07:07:44;;;;;;;9.95;4.22;;;;;;;-3.27;100.00;101300.78;6221719;28;20050;-72
2022/11/19 07:10:45;;;;;;;7.72;4.45;;;;;;;-3.24;100.00;101307.63;6219823;28;20429;-72
2022/11/19 07:13:59;;;;;;;4.65;3.13;;;;;;;-3.21;100.00;101308.53;6220447;28;20064;-72
2022/11/19 07:17:00;;;;;;;8.10;3.20;;;;;;;-3.19;100.00;101305.97;6221291;28;20464;-72
2022/11/19 07:20:02;;;;;;;8.63;3.25;;;;;;;-3.22;100.00;101311.09;6221200;28;20059;-72
2022/11/19 07:23:09;;;;;;;7.65;4.30;;;;;;;-3.23;100.00;101317.91;6223903;28;20421;-72
2022/11/19 07:26:10;;;;;;;8.88;3.45;;;;;;;-3.21;100.00;101320.53;6219594;28;20049;-72
2022/11/19 07:29:13;;;;;;;9.25;3.38;;;;;;;-3.21;100.00;101312.81;6224576;28;20421;-72
2022/11/19 07:32:15;;;;;;;9.80;3.35;;;;;;;-3.19;100.00;101313.69;6225206;28;20045;-73
2022/11/19 07:35:16;;;;;;;4.65;3.60;;;;;;;-3.15;100.00;101316.31;6225495;28;20049;-72
2022/11/19 07:38:19;;;;;;;7.90;3.60;;;;;;;-3.16;100.00;101322.31;6227550;28;20061;-72
2022/11/19 07:44:39;;;;;;;7.35;3.35;;;;;;;-3.16;100.00;101319.72;6219085;28;20058;-72
2022/11/19 07:47:41;;;;;;;5.55;3.25;;;;;;;-3.11;100.00;101317.22;6222137;28;20053;-72
2022/11/19 07:50:42;;;;;;;9.80;3.40;;;;;;;-3.09;100.00;101320.66;6224962;28;20057;-72
2022/11/19 07:53:45;;;;;;;7.82;3.30;;;;;;;-3.08;100.00;101324.97;6224911;28;20421;-73
2022/11/19 07:56:46;;;;;;;11.30;3.83;;;;;;;-3.06;100.00;101328.41;6225307;28;20235;-73
2022/11/19 07:59:48;;;;;;;7.45;4.13;;;;;;;-3.00;100.00;101332.75;6226286;28;20045;-73
2022/11/19 08:02:49;;;;;;;7.80;2.55;;;;;;;-3.02;100.00;101324.19;6225246;28;20053;-72
2022/11/19 08:05:51;;;;;;;8.88;3.28;;;;;;;-2.97;100.00;101328.53;6226758;28;20398;-73
2022/11/19 08:08:54;;;;;;;4.05;2.45;;;;;;;-2.91;100.00;101335.44;6225151;28;20053;-73
2022/11/19 08:11:55;;;;;;;5.30;3.00;;;;;;;-2.88;100.00;101336.34;6224381;28;20042;-72
2022/11/19 08:14:57;;;;;;;8.82;2.33;;;;;;;-2.84;100.00;101330.38;6219861;28;20435;-73
2022/11/19 08:18:14;;;;;;;4.63;2.33;;;;;;;-2.75;100.00;101333.91;6224595;28;20050;-73
2022/11/19 08:21:16;;;;;;;6.60;3.33;;;;;;;-2.70;100.00;101329.66;6224417;28;20091;-73
2022/11/19 08:24:20;;;;;;;5.47;2.67;;;;;;;-2.64;100.00;101340.00;6224237;28;20060;-73
2022/11/19 08:27:21;;;;;;;6.22;2.95;;;;;;;-2.61;100.00;101335.75;6224437;28;20046;-72
2022/11/19 08:30:23;;;;;;;4.47;2.78;;;;;;;-2.61;100.00;101334.91;6227212;28;20061;-73
2022/11/19 08:33:24;;;;;;;3.78;2.47;;;;;;;-2.47;100.00;101337.59;6224295;28;20057;-73
2022/11/19 08:36:26;;;;;;;4.55;2.95;;;;;;;-2.41;100.00;101335.09;6223836;28;20049;-73
2022/11/19 08:39:29;;;;;;;3.78;2.47;;;;;;;-2.39;100.00;101335.97;6225617;28;20054;-73
2022/11/19 08:45:53;;;;;;;4.93;2.67;;;;;;;-2.33;100.00;101328.28;6223588;28;20128;-73
2022/11/19 08:48:54;;;;;;;5.15;2.88;;;;;;;-2.26;100.00;101334.38;6224363;28;20104;-74
2022/11/19 08:51:57;;;;;;;6.95;2.95;;;;;;;-2.21;100.00;101320.69;6223726;28;20046;-72
2022/11/19 08:54:59;;;;;;;5.82;2.78;;;;;;;-2.14;100.00;101332.75;6223546;28;20053;-72
2022/11/19 08:58:02;;;;;;;8.82;3.58;;;;;;;-2.10;100.00;101331.06;6224026;28;20061;-72
2022/11/19 09:01:08;;;;;;;6.05;2.75;;;;;;;-2.06;100.00;101337.97;6206987;28;20053;-72
2022/11/19 09:04:10;;;;;;;5.00;2.55;;;;;;;-2.02;100.00;101333.72;6198880;28;20069;-72
2022/11/19 09:07:11;;;;;;;10.82;3.45;;;;;;;-1.96;100.00;101328.59;6199348;28;20046;-72
2022/11/19 09:10:14;;;;;;;7.65;3.83;;;;;;;-1.93;100.00;101334.63;6202164;28;20050;-72
2022/11/19 09:13:16;;;;;;;7.75;3.47;;;;;;;-1.88;100.00;101332.09;6199330;28;20491;-73
2022/11/19 09:16:17;;;;;;;3.85;2.40;;;;;;;-1.84;100.00;101331.25;6198534;28;20066;-72
2022/11/19 09:19:19;;;;;;;6.93;3.17;;;;;;;-1.76;100.00;101337.34;6209809;28;20057;-72
2022/11/19 09:22:20;;;;;;;8.98;3.60;;;;;;;-1.69;100.00;101339.06;6198465;28;20518;-73
2022/11/19 09:25:23;;;;;;;5.30;2.80;;;;;;;-1.61;100.00;101341.72;6198511;28;20050;-72
2022/11/19 09:28:25;;;;;;;5.55;2.90;;;;;;;-1.57;100.00;101349.47;6198780;28;20050;-74
2022/11/19 09:31:27;;;;;;;4.13;2.47;;;;;;;-1.51;100.00;101350.34;6198474;28;20066;-72
2022/11/19 09:34:28;;;;;;;6.95;2.65;;;;;;;-1.47;100.00;101352.09;6198159;28;20046;-72
2022/11/19 09:37:32;;;;;;;2.47;2.08;;;;;;;-1.44;100.00;101350.41;6198552;28;20422;-72
2022/11/19 09:40:35;;;;;;;3.83;2.22;;;;;;;-1.43;100.00;101341.81;6198364;28;20109;-72
2022/11/19 09:43:45;;;;;;;3.30;1.85;;;;;;;-1.40;100.00;101347.00;6190060;28;20074;-74
2022/11/19 09:46:56;;;;;;;4.95;2.95;;;;;;;-1.36;100.00;101343.59;6189461;28;20051;-72
2022/11/19 09:50:06;;;;;;;4.13;2.20;;;;;;;-1.28;100.00;101339.31;6195480;28;20058;-77
2022/11/19 09:53:15;;;;;;;5.43;2.38;;;;;;;-1.18;100.00;101329.91;6198960;28;20054;-73
2022/11/19 09:56:25;;;;;;;12.73;6.32;;;;;;;-1.09;100.00;101331.66;6198141;28;20046;-73
2022/11/19 09:59:31;;;;;;;4.80;2.83;;;;;;;-1.04;100.00;101336.00;6198252;28;20057;-73
2022/11/19 10:02:33;;;;;;;5.45;2.45;;;;;;;-0.96;100.00;101335.13;6198110;28;20046;-73
2022/11/19 10:05:43;;;;;;;6.28;2.67;;;;;;;-0.94;100.00;101338.59;6180857;28;20069;-73
2022/11/19 10:09:01;;;;;;;2.83;1.67;;;;;;;-0.88;100.00;101331.72;6174197;28;20051;-72
2022/11/19 10:12:21;;;;;;;4.18;2.17;;;;;;;-0.76;100.00;101330.91;6173936;28;20050;-74
2022/11/19 10:15:28;;;;;;;3.40;1.75;;;;;;;-0.67;100.00;101325.78;6173889;28;20050;-73
2022/11/19 10:18:40;;;;;;;1.90;1.58;;;;;;;-0.56;100.00;101329.22;6173909;28;20055;-74
2022/11/19 10:21:49;;;;;;;5.53;3.00;;;;;;;-0.50;100.00;101330.94;6173757;28;20047;-74
2022/11/19 10:24:59;;;;;;;3.58;2.08;;;;;;;-0.35;100.00;101327.53;6173382;28;20058;-74
2022/11/19 10:28:11;;;;;;;3.70;2.30;;;;;;;-0.31;100.00;101329.25;6173780;28;20571;-73
2022/11/19 10:31:17;;;;;;;2.75;1.90;;;;;;;-0.27;99.87;101325.81;6173297;28;20411;-74
2022/11/19 10:34:23;;;;;;;4.43;1.88;;;;;;;-0.13;100.00;101323.25;6173589;28;20054;-74
2022/11/19 10:37:29;;;;;;;10.68;2.67;;;;;;;-0.06;100.00;101324.94;6173681;28;20051;-74
2022/11/19 10:40:36;;;;;;;1.88;1.38;;;;;;;-0.04;95.83;101320.66;6173441;28;20058;-74
2022/11/19 10:43:46;;;;;;;5.75;2.33;;;;;;;0.13;95.64;101318.03;6173544;28;20486;-74
2022/11/19 10:46:49;;;;;;;3.65;1.83;;;;;;;0.22;94.40;101312.84;6173338;28;20074;-74
2022/11/19 10:49:52;;;;;;;3.10;1.67;;;;;;;0.24;93.30;101314.59;6173251;28;20050;-74
2022/11/19 10:52:57;;;;;;;3.70;2.20;;;;;;;0.46;96.06;101319.72;6173498;28;20043;-74
2022/11/19 10:56:03;;;;;;;4.95;1.75;;;;;;;0.61;91.58;101311.03;6173062;28;20055;-74
2022/11/19 10:59:11;;;;;;;2.35;1.83;;;;;;;0.76;90.31;101298.03;6173632;28;20070;-74
2022/11/19 11:02:22;;;;;;;3.45;1.67;;;;;;;0.86;89.57;101289.38;6173248;28;20491;-77
2022/11/19 11:05:23;;;;;;;2.28;1.63;;;;;;;0.93;93.86;101296.25;6178586;28;20061;-73
2022/11/19 11:08:25;;;;;;;4.53;2.00;;;;;;;1.08;92.87;101290.13;6178056;28;20518;-74
2022/11/19 11:14:54;;;;;;;6.40;2.38;;;;;;;1.42;89.77;101282.16;6177349;28;20101;-74
2022/11/19 11:18:01;;;;;;;2.50;1.80;;;;;;;1.53;90.85;101285.50;6178171;28;20042;-74
2022/11/19 11:21:03;;;;;;;4.00;2.10;;;;;;;1.59;89.70;101284.59;6177262;28;20055;-74
2022/11/19 11:24:05;;;;;;;4.60;2.42;;;;;;;1.66;86.64;101276.78;6177483;28;20051;-74
2022/11/19 11:27:20;;;;;;;4.60;2.20;;;;;;;1.45;87.49;101280.41;6177361;28;20418;-74
2022/11/19 11:30:23;;;;;;;6.07;2.55;;;;;;;1.27;88.95;101273.63;6177296;28;20058;-74
2022/11/19 11:33:33;;;;;;;2.63;2.20;;;;;;;1.16;90.52;101272.81;6177622;28;20050;-74
2022/11/19 11:36:37;;;;;;;3.63;2.08;;;;;;;1.06;91.31;101260.81;6176952;28;20050;-74
2022/11/19 11:39:42;;;;;;;2.72;1.80;;;;;;;1.12;87.96;101252.16;6177363;28;20058;-74
2022/11/19 11:42:46;;;;;;;3.03;1.83;;;;;;;1.37;86.83;101264.06;6176996;28;20050;-74
2022/11/19 11:45:56;;;;;;;3.25;1.67;;;;;;;1.61;87.96;101256.97;6176572;28;20070;-74
2022/11/19 11:48:58;;;;;;;8.77;2.60;;;;;;;1.87;84.66;101252.41;6177189;28;20106;-73
2022/11/19 11:52:12;;;;;;;7.47;2.50;;;;;;;2.13;83.42;101249.56;6176598;28;20054;-73
2022/11/19 11:55:15;;;;;;;5.45;2.50;;;;;;;2.39;83.12;101251.88;6176487;28;20058;-73
2022/11/19 11:58:25;;;;;;;2.28;1.85;;;;;;;2.44;80.80;101239.69;6177264;28;20058;-73
2022/11/19 12:01:28;;;;;;;2.97;2.20;;;;;;;2.32;82.43;101242.44;6176396;28;20499;-73
2022/11/19 12:04:30;;;;;;;6.03;2.00;;;;;;;2.46;83.41;101237.09;6176079;28;20054;-73
2022/11/19 12:07:53;;;;;;;5.20;2.38;;;;;;;2.45;86.14;101238.84;6176866;28;20055;-73
2022/11/19 12:11:01;;;;;;;2.95;1.92;;;;;;;2.49;83.18;101232.72;6176154;28;20051;-73
2022/11/19 12:14:08;;;;;;;6.07;2.63;;;;;;;2.59;82.69;101236.06;6176147;28;20058;-73
2022/11/19 12:17:22;;;;;;;3.85;2.00;;;;;;;2.38;80.46;101238.91;6176253;28;20087;-73
2022/11/19 12:20:35;;;;;;;4.75;2.40;;;;;;;2.28;79.18;101226.06;6176248;28;20047;-73
2022/11/19 12:23:56;;;;;;;4.25;2.30;;;;;;;2.32;79.92;101229.50;6176241;28;20051;-73
2022/11/19 12:27:09;;;;;;;5.22;2.33;;;;;;;2.38;81.51;101228.56;6176206;28;20430;-73
2022/11/19 12:30:17;;;;;;;6.45;2.25;;;;;;;2.28;80.32;101227.81;6175688;28;20529;-73
2022/11/19 12:33:35;;;;;;;3.33;1.98;;;;;;;2.17;81.84;101221.84;6176244;28;20081;-73
2022/11/19 12:36:48;;;;;;;3.35;2.05;;;;;;;2.13;85.52;101217.59;6175620;28;20058;-73
2022/11/19 12:39:54;;;;;;;2.90;1.67;;;;;;;2.05;80.79;101215.09;6175848;28;20136;-73
2022/11/19 12:43:02;;;;;;;4.15;1.98;;;;;;;1.97;88.03;101217.75;6176306;28;20503;-73
2022/11/19 12:46:13;;;;;;;4.32;2.17;;;;;;;1.94;91.28;101224.69;6175488;28;20050;-73
2022/11/19 12:49:52;;;;;;;2.88;1.92;;;;;;;1.74;89.37;101217.13;6176167;28;20054;-73
2022/11/19 12:53:06;;;;;;;3.38;2.00;;;;;;;1.74;90.44;101227.50;6163074;28;20054;-73
2022/11/19 12:56:21;;;;;;;3.65;1.77;;;;;;;1.80;92.02;101222.25;6175195;28;20534;-73
2022/11/19 12:59:38;;;;;;;3.58;1.80;;;;;;;1.68;92.05;101217.16;6175408;28;20431;-74
2022/11/19 13:02:48;;;;;;;4.68;2.50;;;;;;;1.66;91.02;101227.56;6175178;28;20523;-74
2022/11/19 13:05:56;;;;;;;6.80;2.20;;;;;;;1.60;86.57;101211.22;6175124;28;20051;-73
2022/11/19 13:09:01;;;;;;;6.35;2.85;;;;;;;1.58;88.65;101224.16;6175106;28;20451;-73
2022/11/19 13:12:07;;;;;;;4.60;2.50;;;;;;;1.56;83.43;101225.94;6175117;28;20055;-73
2022/11/19 13:15:17;;;;;;;6.93;2.30;;;;;;;1.63;85.89;101218.94;6174695;28;20058;-73
2022/11/19 13:18:20;;;;;;;5.20;2.65;;;;;;;1.63;88.09;101219.81;6184184;28;20046;-73
2022/11/19 13:21:29;;;;;;;4.88;2.42;;;;;;;1.66;86.66;101214.59;6198483;28;20057;-73
2022/11/19 13:24:33;;;;;;;;;;;;;;;1.60;86.78;101219.00;6198770;28;20406;-73
2022/11/19 13:27:36;;;;;;;2.33;1.88;;;;;;;1.65;87.73;101219.81;6198399;28;19928;-73
2022/11/19 13:30:42;;;;;;;4.88;2.25;;;;;;;1.62;85.74;101215.50;6198500;28;20053;-73
2022/11/19 13:33:52;;;;;;;6.43;2.10;;;;;;;1.58;85.50;101223.31;6192146;28;20046;-73
2022/11/19 13:37:02;;;;;;;2.72;1.80;;;;;;;1.54;85.64;101212.13;6198459;28;20057;-73
2022/11/19 13:40:09;;;;;;;4.97;2.20;;;;;;;1.57;84.81;101212.09;6198489;28;20391;-73
2022/11/19 13:46:39;;;;;;;6.30;2.20;;;;;;;1.55;84.40;101200.91;6198023;28;20054;-73
2022/11/19 13:49:44;;;;;;;4.95;2.65;;;;;;;1.56;86.53;101201.75;6198401;28;20046;-74
2022/11/19 13:52:54;;;;;;;2.83;1.38;;;;;;;1.58;89.25;101202.59;6192143;28;20046;-73
2022/11/19 13:55:57;;;;;;;5.50;2.42;;;;;;;1.58;92.13;101197.41;6192455;28;20050;-74
2022/11/19 13:58:59;;;;;;;6.85;2.20;;;;;;;1.58;88.99;101197.41;6198424;28;20057;-73
2022/11/19 14:02:19;;;;;;;3.53;2.30;;;;;;;1.50;91.00;101190.59;6197603;28;20050;-73
2022/11/19 14:05:43;;;;;;;3.15;1.95;;;;;;;1.57;92.03;101191.38;6198143;28;20057;-75
2022/11/19 14:09:02;;;;;;;3.83;1.83;;;;;;;1.55;90.55;101192.28;6198336;28;20051;-75
2022/11/19 14:12:29;;;;;;;5.47;2.67;;;;;;;1.55;92.78;101193.13;6199829;28;20054;-73
2022/11/19 14:29:45;;;;;;;5.63;2.38;;;;;;;1.43;94.29;101203.59;6197890;28;20494;-73
2022/11/19 14:32:50;;;;;;;2.30;1.50;;;;;;;1.43;96.49;101213.94;6197736;28;20046;-73
2022/11/19 14:35:51;;;;;;;2.95;1.77;;;;;;;1.42;96.21;101204.47;6197174;28;20058;-73
2022/11/19 14:38:56;;;;;;;5.43;2.20;;;;;;;1.34;97.29;101208.84;6201042;28;20073;-73
2022/11/19 14:42:14;;;;;;;4.38;2.30;;;;;;;1.26;97.41;101201.97;6202549;28;20525;-73
2022/11/19 14:45:20;;;;;;;6.20;1.90;;;;;;;1.25;96.33;101197.69;6202611;28;20043;-73
2022/11/19 14:48:22;;;;;;;2.78;1.80;;;;;;;1.23;98.11;101193.41;6207993;28;20073;-73
2022/11/19 14:51:29;;;;;;;5.55;2.75;;;;;;;1.15;99.60;101193.47;6206692;28;20635;-73
2022/11/19 14:54:34;;;;;;;6.25;2.45;;;;;;;1.11;100.00;101186.59;6203552;28;20057;-73
2022/11/19 14:57:39;;;;;;;5.93;2.28;;;;;;;1.02;100.00;101184.91;6202529;28;20050;-73